Time;durP1;ratioP1;P1;durP2;ratioP2;P2;SDS_P1;SDS_P2;PMS_P1;PMS_P2;Temp;Humidity;BMP_temperature;BMP_pressure;BME280_temperature;BME280_humidity;BME280_pressure;Samples;Min_cycle;Max_cycle;Signal;HPM_P1;HPM_P2
2023/02/23 00:02:14;;;;;;;0.00;0.00;;;;;;;6.47;59.94;101614.19;7352787;19;20013;-55
2023/02/23 00:04:40;;;;;;;0.00;0.00;;;;;;;6.90;60.42;101703.69;7352990;19;20010;-55
2023/02/23 00:07:06;;;;;;;0.00;0.00;;;;;;;6.89;60.49;101706.25;7354608;19;20018;-55
2023/02/23 00:09:34;;;;;;;0.00;0.00;;;;;;;6.80;60.29;101691.50;7353785;19;20665;-55
2023/02/23 00:12:07;;;;;;;0.05;0.05;;;;;;;6.85;60.35;101710.56;7353512;19;22349;-56
2023/02/23 00:14:34;;;;;;;0.00;0.00;;;;;;;6.80;60.30;101712.25;7338241;19;20010;-55
2023/02/23 00:17:00;;;;;;;0.00;0.00;;;;;;;6.68;60.35;101700.00;7351235;19;20078;-57
2023/02/23 00:19:25;;;;;;;0.00;0.00;;;;;;;6.71;60.06;101714.75;7350619;19;20014;-55
2023/02/23 00:21:52;;;;;;;0.08;0.08;;;;;;;6.75;60.59;101711.34;7352252;19;20035;-56
2023/02/23 00:24:19;;;;;;;0.00;0.00;;;;;;;6.68;60.51;101720.78;7355765;19;20481;-56
2023/02/23 00:26:46;;;;;;;0.00;0.00;;;;;;;6.57;60.42;101706.84;7341825;19;20013;-55
2023/02/23 00:29:17;;;;;;;0.00;0.00;;;;;;;6.70;60.21;101733.78;7350175;19;20601;-55
2023/02/23 00:31:44;;;;;;;0.00;0.00;;;;;;;6.52;60.58;101707.66;7351663;19;20031;-55
2023/02/23 00:34:11;;;;;;;0.00;0.00;;;;;;;6.62;60.53;101740.63;7349353;19;20118;-55
2023/02/23 00:36:37;;;;;;;0.00;0.00;;;;;;;6.45;60.40;101717.97;7351372;19;20015;-54
2023/02/23 00:39:16;;;;;;;0.00;0.00;;;;;;;6.46;60.33;101731.81;7350566;19;20460;-55
2023/02/23 00:41:41;;;;;;;0.00;0.00;;;;;;;6.48;60.75;101743.94;7350578;19;20029;-54
2023/02/23 00:44:07;;;;;;;0.10;0.10;;;;;;;6.49;60.56;101750.88;7347924;19;20560;-55
2023/02/23 00:46:32;;;;;;;0.00;0.00;;;;;;;6.47;60.72;101757.78;7349293;19;20007;-55
2023/02/23 00:48:58;;;;;;;0.00;0.00;;;;;;;6.37;60.85;101745.53;7354209;19;20106;-55
2023/02/23 00:51:29;;;;;;;0.00;0.00;;;;;;;6.46;60.39;101756.03;7354012;19;20014;-54
2023/02/23 00:53:56;;;;;;;0.05;0.05;;;;;;;6.35;60.95;101742.06;7352147;19;20018;-54
2023/02/23 00:56:21;;;;;;;0.03;0.03;;;;;;;6.42;61.24;101767.22;7353093;19;20860;-55
2023/02/23 00:58:47;;;;;;;0.00;0.00;;;;;;;6.40;60.71;101761.16;7351820;19;20020;-55
2023/02/23 01:01:13;;;;;;;0.00;0.00;;;;;;;6.39;60.93;101763.75;7353639;19;20006;-55
2023/02/23 01:03:41;;;;;;;0.00;0.00;;;;;;;6.37;60.93;101755.91;7348266;19;20037;-55
2023/02/23 01:06:10;;;;;;;0.00;0.00;;;;;;;6.36;61.00;101758.50;7352817;19;20027;-52
2023/02/23 01:08:38;;;;;;;0.00;0.00;;;;;;;6.18;60.87;101738.41;7344955;19;20841;-55
2023/02/23 01:11:06;;;;;;;0.00;0.00;;;;;;;6.33;60.77;101761.06;7353569;19;20037;-55
2023/02/23 01:13:32;;;;;;;0.00;0.00;;;;;;;6.32;60.81;101767.09;7351119;19;20014;-55
2023/02/23 01:15:57;;;;;;;0.00;0.00;;;;;;;6.29;60.72;101767.94;7347848;19;20014;-55
2023/02/23 01:18:23;;;;;;;0.10;0.10;;;;;;;6.12;60.65;101743.50;7333941;19;20030;-55
2023/02/23 01:20:49;;;;;;;0.00;0.00;;;;;;;6.26;60.95;101762.72;7352297;19;20704;-52
2023/02/23 01:23:15;;;;;;;0.00;0.00;;;;;;;6.26;60.98;101767.03;7349092;19;20038;-56
2023/02/23 01:25:43;;;;;;;0.00;0.00;;;;;;;6.22;61.02;101766.13;7354266;19;20458;-54
2023/02/23 01:28:09;;;;;;;;;;;;;;;6.23;60.05;101773.03;7353452;19;20022;-55
2023/02/23 01:30:35;;;;;;;0.00;0.00;;;;;;;6.11;60.97;101762.53;7353927;19;20442;-54
2023/02/23 01:33:01;;;;;;;0.00;0.00;;;;;;;6.05;60.81;101749.50;7353127;19;20032;-55
2023/02/23 01:35:27;;;;;;;0.00;0.00;;;;;;;6.16;60.74;101776.41;7351618;19;20109;-55
2023/02/23 01:37:52;;;;;;;0.00;0.00;;;;;;;6.11;61.29;101776.38;7351068;19;20090;-55
2023/02/23 01:40:27;;;;;;;0.00;0.00;;;;;;;6.12;60.73;101792.78;7354049;19;20478;-56
2023/02/23 01:42:56;;;;;;;;;;;;;;;6.11;60.20;101788.47;7354158;19;20018;-55
2023/02/23 01:45:33;;;;;;;0.00;0.00;;;;;;;6.08;60.47;101793.59;7352272;19;19949;-55
2023/02/23 01:48:05;;;;;;;0.00;0.00;;;;;;;6.05;60.78;101788.38;7354826;19;20027;-55
2023/02/23 01:50:39;;;;;;;0.00;0.00;;;;;;;6.01;60.48;101800.44;7353791;19;22023;-56
2023/02/23 01:53:05;;;;;;;0.05;0.05;;;;;;;5.92;60.89;101792.50;7353620;19;20543;-55
2023/02/23 01:55:30;;;;;;;0.00;0.00;;;;;;;5.93;60.64;101794.25;7351027;19;20006;-54
2023/02/23 01:58:07;;;;;;;0.00;0.00;;;;;;;5.88;61.14;101795.88;7352989;19;20015;-52
2023/02/23 02:00:36;;;;;;;0.10;0.10;;;;;;;5.82;61.30;101794.06;7350552;19;20010;-55
2023/02/23 02:03:08;;;;;;;0.00;0.00;;;;;;;5.74;61.04;101785.34;7354898;19;20006;-55
2023/02/23 02:05:37;;;;;;;0.00;0.00;;;;;;;5.77;61.34;101792.25;7354141;19;20464;-55
2023/02/23 02:08:05;;;;;;;0.00;0.00;;;;;;;5.80;61.40;101808.75;7354834;19;20601;-55
2023/02/23 02:10:43;;;;;;;0.00;0.00;;;;;;;5.78;61.10;101820.81;7352774;19;20117;-57
2023/02/23 02:13:13;;;;;;;0.08;0.08;;;;;;;5.76;60.94;101822.50;7354879;19;20758;-54
2023/02/23 02:16:41;;;;;;;0.00;0.00;;;;;;;5.75;60.78;101825.94;7352092;19;20022;-55
2023/02/23 02:19:40;;;;;;;0.00;0.00;;;;;;;5.72;60.88;101821.56;7133956;19;2004371;-55
2023/02/23 02:22:26;;;;;;;0.05;0.05;;;;;;;5.69;61.28;101825.84;7253083;19;2004370;-55
2023/02/23 02:25:05;;;;;;;0.00;0.00;;;;;;;5.66;61.06;101828.38;7253194;19;2004463;-55
2023/02/23 02:28:12;;;;;;;0.00;0.00;;;;;;;5.63;60.88;101829.22;7352598;19;20040;-55
2023/02/23 02:30:59;;;;;;;0.00;0.00;;;;;;;5.60;61.60;101836.94;7252633;19;2004234;-55
2023/02/23 02:33:37;;;;;;;0.00;0.00;;;;;;;5.53;61.55;101823.88;7356351;19;20010;-55
2023/02/23 02:36:16;;;;;;;0.10;0.10;;;;;;;5.56;61.36;101834.28;7351160;19;20957;-54
2023/02/23 02:38:52;;;;;;;0.03;0.03;;;;;;;5.53;61.82;101829.06;7355815;19;20093;-55
2023/02/23 02:41:34;;;;;;;0.00;0.00;;;;;;;5.47;61.99;101829.81;7353482;19;20006;-55
2023/02/23 02:44:09;;;;;;;0.00;0.00;;;;;;;5.39;61.81;101814.16;7349492;19;20036;-56
2023/02/23 02:46:39;;;;;;;0.00;0.00;;;;;;;5.47;62.07;101830.72;7352504;19;20599;-55
2023/02/23 02:49:16;;;;;;;0.00;0.00;;;;;;;5.47;61.86;101827.22;7352749;19;20359;-56
2023/02/23 02:51:56;;;;;;;0.00;0.00;;;;;;;5.46;61.35;101830.66;7354928;19;20014;-56
2023/02/23 02:54:29;;;;;;;0.00;0.00;;;;;;;5.43;61.98;101834.09;7355734;19;20041;-55
2023/02/23 02:56:59;;;;;;;0.00;0.00;;;;;;;5.32;61.48;101814.00;7352967;19;20511;-55
2023/02/23 04:19:50;;;;;;;0.00;0.00;;;;;;;4.65;62.62;101892.16;7358902;19;20046;-55
2023/02/23 04:22:16;;;;;;;0.00;0.00;;;;;;;4.55;62.96;101871.25;7340558;19;20043;-56
2023/02/23 04:24:41;;;;;;;0.00;0.00;;;;;;;4.49;62.81;101868.53;7355866;19;20010;-55
2023/02/23 04:27:06;;;;;;;0.10;0.10;;;;;;;4.55;62.74;101879.00;7354938;19;20022;-55
2023/02/23 04:29:32;;;;;;;0.08;0.08;;;;;;;4.59;62.83;101889.47;7352559;19;20013;-53
2023/02/23 04:31:57;;;;;;;0.00;0.00;;;;;;;4.49;62.87;101876.31;7357276;19;20018;-55
2023/02/23 04:34:23;;;;;;;0.00;0.00;;;;;;;4.56;62.71;101891.09;7355526;19;20846;-54
2023/02/23 04:36:50;;;;;;;0.00;0.00;;;;;;;4.50;62.52;101881.50;7355921;19;20032;-56
2023/02/23 04:39:15;;;;;;;0.00;0.00;;;;;;;4.45;62.46;101871.91;7358481;19;20085;-55
2023/02/23 04:41:41;;;;;;;0.00;0.00;;;;;;;4.40;62.75;101867.50;7358438;19;22330;-54
2023/02/23 04:44:06;;;;;;;0.00;0.00;;;;;;;4.51;62.82;101887.53;7357020;19;20010;-56
2023/02/23 04:46:32;;;;;;;0.00;0.00;;;;;;;4.47;62.40;101876.28;7358121;19;20018;-56
2023/02/23 04:48:58;;;;;;;0.05;0.05;;;;;;;4.44;62.31;101878.78;7356947;19;20010;-55
2023/02/23 04:51:23;;;;;;;0.00;0.00;;;;;;;4.48;62.79;101892.66;7356253;19;20964;-55
2023/02/23 04:53:49;;;;;;;0.00;0.00;;;;;;;4.48;62.93;101892.66;7356643;19;20019;-54
2023/02/23 04:56:14;;;;;;;0.00;0.00;;;;;;;4.47;62.72;101880.59;7355452;19;20888;-56
2023/02/23 04:58:41;;;;;;;0.10;0.10;;;;;;;4.30;63.04;101852.63;7358151;19;20028;-55
2023/02/23 05:01:08;;;;;;;0.00;0.00;;;;;;;4.46;63.17;101886.56;7356022;19;20014;-56
2023/02/23 05:03:35;;;;;;;0.00;0.00;;;;;;;4.38;62.99;101876.94;7358447;19;20017;-55
2023/02/23 05:06:00;;;;;;;0.00;0.00;;;;;;;4.41;62.75;101887.38;7356336;19;20041;-56
2023/02/23 05:08:25;;;;;;;0.10;0.10;;;;;;;4.42;63.30;101889.09;7356266;19;20712;-56
2023/02/23 05:10:51;;;;;;;0.10;0.10;;;;;;;4.39;62.88;101883.00;7355409;19;20018;-54
2023/02/23 05:13:16;;;;;;;0.00;0.00;;;;;;;4.32;63.55;101865.59;7355493;19;20011;-53
2023/02/23 05:15:42;;;;;;;0.00;0.00;;;;;;;4.41;63.17;101877.03;7359053;19;22213;-56
2023/02/23 05:18:07;;;;;;;0.00;0.00;;;;;;;4.27;63.57;101847.41;7355785;19;20010;-54
2023/02/23 05:20:33;;;;;;;0.00;0.00;;;;;;;4.27;63.62;101851.72;7355376;19;20019;-55
2023/02/23 05:22:58;;;;;;;0.00;0.00;;;;;;;4.39;63.21;101862.31;7354570;19;20031;-54
2023/02/23 05:25:24;;;;;;;0.00;0.00;;;;;;;4.26;63.43;101850.84;7356811;19;20003;-55
2023/02/23 05:27:49;;;;;;;0.10;0.10;;;;;;;4.24;63.25;101841.28;7354245;19;20557;-54
2023/02/23 05:30:15;;;;;;;0.00;0.00;;;;;;;4.34;63.38;101864.78;7357659;19;20552;-54
2023/02/23 05:32:40;;;;;;;0.00;0.00;;;;;;;4.23;63.78;101850.75;7354719;19;20022;-55
2023/02/23 05:35:06;;;;;;;0.00;0.00;;;;;;;4.17;63.69;101850.63;7355793;19;20011;-55
2023/02/23 05:37:32;;;;;;;0.00;0.00;;;;;;;4.29;63.79;101870.69;7355829;19;20025;-56
2023/02/23 05:39:58;;;;;;;0.00;0.00;;;;;;;4.31;63.22;101882.84;7357313;19;20578;-55
2023/02/23 05:42:23;;;;;;;0.00;0.00;;;;;;;4.32;63.51;101886.28;7354622;19;20047;-55
2023/02/23 05:44:49;;;;;;;0.00;0.00;;;;;;;4.07;63.61;101841.81;7356277;19;20014;-55
2023/02/23 05:47:14;;;;;;;0.00;0.00;;;;;;;4.25;63.68;101877.50;7351933;19;20491;-55
2023/02/23 05:49:39;;;;;;;0.00;0.00;;;;;;;4.30;63.64;101890.53;7352679;19;20880;-55
2023/02/23 05:52:05;;;;;;;0.00;0.00;;;;;;;4.11;63.45;101845.34;7352286;19;20043;-56
2023/02/23 05:54:30;;;;;;;0.00;0.00;;;;;;;4.26;63.58;101876.69;7357649;19;20010;-56
2023/02/23 05:56:56;;;;;;;0.00;0.00;;;;;;;3.92;63.78;101822.50;7355753;19;20373;-55
2023/02/23 05:59:21;;;;;;;0.00;0.00;;;;;;;4.23;63.57;101886.97;7356703;19;20855;-55
2023/02/23 06:01:46;;;;;;;0.00;0.00;;;;;;;4.24;63.84;101891.28;7355578;19;20112;-54
2023/02/23 06:04:12;;;;;;;0.00;0.00;;;;;;;3.89;63.50;101834.50;7355558;19;20020;-55
2023/02/23 06:06:38;;;;;;;0.00;0.00;;;;;;;3.82;63.52;101813.66;7355398;19;20010;-55
2023/02/23 06:09:04;;;;;;;0.00;0.00;;;;;;;4.17;63.40;101886.81;7353978;19;20010;-55
2023/02/23 06:11:30;;;;;;;0.00;0.00;;;;;;;4.05;63.44;101871.03;7356618;19;21090;-54
2023/02/23 06:13:59;;;;;;;0.00;0.00;;;;;;;4.04;63.72;101869.28;7353899;19;20006;-55
2023/02/23 06:16:26;;;;;;;0.00;0.00;;;;;;;4.12;63.81;101883.25;7355235;19;20014;-55
2023/02/23 06:18:51;;;;;;;0.00;0.00;;;;;;;4.07;63.72;101879.69;7352427;19;20022;-55
2023/02/23 06:21:16;;;;;;;0.00;0.00;;;;;;;4.01;63.69;101880.44;7356474;19;20010;-54
2023/02/23 06:23:42;;;;;;;0.00;0.00;;;;;;;3.56;63.69;101813.94;7353548;19;20013;-56
2023/02/23 06:26:08;;;;;;;0.00;0.00;;;;;;;3.93;63.78;101866.44;7354963;19;20049;-56
2023/02/23 06:28:33;;;;;;;0.00;0.00;;;;;;;3.91;64.01;101870.72;7356616;19;20018;-54
2023/02/23 06:30:59;;;;;;;0.10;0.10;;;;;;;3.92;63.49;101879.34;7356365;19;20015;-54
2023/02/23 06:33:24;;;;;;;0.00;0.00;;;;;;;3.82;63.56;101873.97;7355028;19;20034;-54
2023/02/23 06:35:50;;;;;;;0.00;0.00;;;;;;;3.88;63.81;101894.78;7356486;19;20007;-55
2023/02/23 06:38:16;;;;;;;0.00;0.00;;;;;;;3.78;64.13;101892.81;7356944;19;20006;-55
2023/02/23 06:40:42;;;;;;;0.00;0.00;;;;;;;3.67;63.63;101878.75;7356101;19;20014;-55
2023/02/23 06:43:07;;;;;;;0.00;0.00;;;;;;;3.76;64.09;101904.81;7358259;19;20018;-55
2023/02/23 06:45:33;;;;;;;0.00;0.00;;;;;;;3.78;63.84;101918.63;7359481;19;20014;-55
2023/02/23 06:47:59;;;;;;;0.00;0.00;;;;;;;3.60;63.91;101879.47;7360483;19;20056;-55
2023/02/23 06:50:24;;;;;;;0.00;0.00;;;;;;;3.71;63.65;101898.66;7361737;19;20495;-54
2023/02/23 06:52:50;;;;;;;0.00;0.00;;;;;;;3.59;63.65;101895.75;7363988;19;20078;-55
2023/02/23 06:55:16;;;;;;;0.00;0.00;;;;;;;3.70;63.70;101924.44;7360765;19;20007;-55
2023/02/23 06:57:42;;;;;;;0.10;0.10;;;;;;;3.68;63.91;101932.16;7354572;19;20010;-54
2023/02/23 07:00:09;;;;;;;0.10;0.10;;;;;;;3.56;64.02;101906.03;7359603;19;20538;-53
2023/02/23 07:02:36;;;;;;;0.00;0.00;;;;;;;3.60;64.22;101918.19;7360810;19;20006;-52
2023/02/23 07:05:02;;;;;;;0.03;0.03;;;;;;;3.62;64.21;101921.69;7364454;19;20452;-56
2023/02/23 07:07:28;;;;;;;0.00;0.00;;;;;;;3.55;64.17;101920.66;7360052;19;20452;-55
2023/02/23 07:09:53;;;;;;;0.00;0.00;;;;;;;3.55;64.13;101920.66;7356221;19;20703;-54
2023/02/23 07:12:19;;;;;;;0.00;0.00;;;;;;;3.47;64.16;101916.13;7362631;19;20486;-54
2023/02/23 07:14:45;;;;;;;0.00;0.00;;;;;;;3.16;64.41;101862.81;7356920;19;20078;-54
2023/02/23 07:17:10;;;;;;;0.10;0.10;;;;;;;3.46;64.30;101925.59;7359871;19;20708;-54
2023/02/23 07:19:36;;;;;;;0.00;0.00;;;;;;;3.55;63.88;101946.50;7354321;19;20827;-55
2023/02/23 07:22:02;;;;;;;0.00;0.00;;;;;;;3.43;64.17;101932.38;7357012;19;20027;-55
2023/02/23 07:24:27;;;;;;;0.10;0.10;;;;;;;3.51;64.25;101951.53;7349035;19;20002;-55
2023/02/23 07:26:53;;;;;;;0.00;0.00;;;;;;;3.48;64.18;101948.84;7361928;19;20006;-55
2023/02/23 07:29:18;;;;;;;0.10;0.10;;;;;;;2.99;64.30;101875.25;7355662;19;20024;-56
2023/02/23 07:31:44;;;;;;;0.00;0.00;;;;;;;3.43;64.31;101950.44;7355090;19;20050;-54
2023/02/23 07:34:10;;;;;;;0.00;0.00;;;;;;;3.46;64.17;101955.69;7360807;19;20006;-56
2023/02/23 07:36:35;;;;;;;0.10;0.10;;;;;;;3.50;64.37;101973.03;7356789;19;20014;-55
2023/02/23 07:39:02;;;;;;;0.00;0.00;;;;;;;3.36;64.20;101964.91;7358245;19;20010;-54
2023/02/23 07:41:28;;;;;;;0.00;0.00;;;;;;;3.49;64.05;101981.59;7359132;19;20031;-54
2023/02/23 07:43:53;;;;;;;0.00;0.00;;;;;;;3.44;64.33;101973.72;7356870;19;20018;-55
2023/02/23 07:46:18;;;;;;;0.08;0.08;;;;;;;3.42;64.23;101979.69;7354641;19;20620;-55
2023/02/23 07:48:44;;;;;;;0.00;0.00;;;;;;;3.39;63.90;101983.91;7352699;19;20013;-55
2023/02/23 07:51:11;;;;;;;0.00;0.00;;;;;;;3.48;64.10;101995.34;7360022;19;20011;-54
2023/02/23 07:53:38;;;;;;;0.03;0.03;;;;;;;3.48;64.23;102000.50;7353619;19;20022;-55
2023/02/23 07:56:04;;;;;;;0.03;0.03;;;;;;;3.42;64.22;101997.75;7333644;19;20597;-56
2023/02/23 07:58:30;;;;;;;0.00;0.00;;;;;;;3.46;64.47;101997.00;7354588;19;20132;-55
2023/02/23 08:00:56;;;;;;;0.00;0.00;;;;;;;3.50;64.44;102004.03;7355292;19;20010;-56
2023/02/23 08:03:21;;;;;;;0.03;0.03;;;;;;;3.44;64.53;101996.94;7347504;19;20013;-53
2023/02/23 08:05:47;;;;;;;0.10;0.10;;;;;;;3.50;64.40;102006.59;7355508;19;22151;-55
2023/02/23 08:08:12;;;;;;;0.00;0.00;;;;;;;3.44;64.63;101993.50;7352589;19;20014;-55
2023/02/23 08:10:38;;;;;;;0.00;0.00;;;;;;;3.37;64.57;101969.22;7351284;19;20673;-55
2023/02/23 08:13:04;;;;;;;0.00;0.00;;;;;;;3.53;64.68;101993.75;7353217;19;20010;-55
2023/02/23 08:15:30;;;;;;;0.00;0.00;;;;;;;3.55;64.67;102005.03;7353189;19;20042;-56
2023/02/23 08:17:56;;;;;;;0.00;0.00;;;;;;;3.51;64.85;101998.00;7356751;19;20038;-55
2023/02/23 08:20:22;;;;;;;0.00;0.00;;;;;;;3.60;64.59;102006.00;7353544;19;20039;-56
2023/02/23 08:22:53;;;;;;;0.00;0.00;;;;;;;3.57;64.78;102006.78;7359414;19;20025;-55
2023/02/23 08:25:19;;;;;;;0.00;0.00;;;;;;;3.63;64.80;102021.56;7357712;19;20014;-53
2023/02/23 08:27:45;;;;;;;0.10;0.10;;;;;;;3.69;64.85;102024.31;7356327;19;20823;-55
2023/02/23 08:30:12;;;;;;;0.10;0.10;;;;;;;3.65;64.78;102001.84;7356458;19;20019;-55
2023/02/23 08:32:38;;;;;;;0.00;0.00;;;;;;;3.64;64.99;101997.50;7354238;19;20014;-55
2023/02/23 08:35:05;;;;;;;0.00;0.00;;;;;;;3.79;65.00;102013.38;7332925;19;20017;-55
2023/02/23 08:37:31;;;;;;;0.00;0.00;;;;;;;4.00;65.06;102017.34;7352223;19;20015;-56
2023/02/23 08:39:58;;;;;;;0.00;0.00;;;;;;;4.06;65.13;102002.03;7358684;19;20040;-56
2023/02/23 08:42:23;;;;;;;0.00;0.00;;;;;;;4.23;65.33;101998.13;7354837;19;20046;-55
2023/02/23 08:44:49;;;;;;;0.00;0.00;;;;;;;4.37;64.94;101999.34;7358150;19;20086;-55
2023/02/23 08:47:15;;;;;;;0.00;0.00;;;;;;;4.69;65.35;102012.13;7356076;19;20481;-56
2023/02/23 08:49:41;;;;;;;0.00;0.00;;;;;;;4.86;65.14;102010.78;7359837;19;20018;-55
2023/02/23 08:52:06;;;;;;;0.00;0.00;;;;;;;5.08;64.85;102003.50;7347367;19;20019;-56
2023/02/23 08:54:32;;;;;;;0.00;0.00;;;;;;;5.28;65.38;102009.94;7353285;19;20852;-55
2023/02/23 08:56:57;;;;;;;0.00;0.00;;;;;;;5.45;65.01;102003.38;7355985;19;20426;-56
2023/02/23 08:59:23;;;;;;;0.00;0.00;;;;;;;5.69;64.87;101999.50;7357310;19;20035;-55
2023/02/23 09:01:48;;;;;;;0.10;0.10;;;;;;;5.86;64.83;101995.47;7355803;19;20011;-56
2023/02/23 09:04:14;;;;;;;0.00;0.00;;;;;;;6.09;64.38;102010.59;7358286;19;20014;-55
2023/02/23 09:06:40;;;;;;;0.00;0.00;;;;;;;6.31;64.47;102014.41;7355763;19;20010;-54
2023/02/23 09:09:05;;;;;;;0.10;0.10;;;;;;;6.50;64.34;102017.31;7354747;19;20059;-56
2023/02/23 09:11:31;;;;;;;0.00;0.00;;;;;;;6.71;63.72;102015.88;7356866;19;20663;-55
2023/02/23 09:13:56;;;;;;;0.00;0.00;;;;;;;6.93;63.77;102017.91;7355724;19;20117;-55
2023/02/23 09:16:22;;;;;;;0.00;0.00;;;;;;;7.15;63.73;102018.22;7351513;19;20045;-56
2023/02/23 09:18:47;;;;;;;0.00;0.00;;;;;;;7.03;63.29;101962.63;7357475;19;20013;-56
2023/02/23 09:21:21;;;;;;;0.00;0.00;;;;;;;7.65;63.11;102025.69;7357357;19;20015;-56
2023/02/23 09:23:50;;;;;;;0.00;0.00;;;;;;;7.90;63.11;102027.66;7355902;19;20007;-57
2023/02/23 09:26:17;;;;;;;0.00;0.00;;;;;;;8.15;62.85;102023.56;7356662;19;20066;-56
2023/02/23 09:28:43;;;;;;;0.00;0.00;;;;;;;8.41;62.98;102029.00;7355087;19;20010;-56
2023/02/23 09:31:15;;;;;;;0.00;0.00;;;;;;;8.69;63.05;102013.59;7357559;19;20017;-57
2023/02/23 09:33:40;;;;;;;0.00;0.00;;;;;;;8.92;62.23;102009.41;7354560;19;20007;-55
2023/02/23 09:36:15;;;;;;;0.00;0.00;;;;;;;9.22;62.08;102019.06;7355860;19;20017;-56
2023/02/23 09:38:41;;;;;;;0.10;0.10;;;;;;;9.39;61.68;102026.09;7352475;19;20018;-54
2023/02/23 09:41:50;;;;;;;0.00;0.00;;;;;;;9.76;62.33;102024.44;7356065;19;20023;-57
2023/02/23 09:44:33;;;;;;;0.00;0.00;;;;;;;10.05;61.96;102019.25;7255745;19;2004738;-56
2023/02/23 09:47:39;;;;;;;0.00;0.00;;;;;;;10.35;61.88;102018.44;7354409;19;20042;-56
2023/02/23 09:50:15;;;;;;;0.00;0.00;;;;;;;10.61;61.28;102021.88;7254586;19;2004483;-54
2023/02/23 09:52:47;;;;;;;0.00;0.00;;;;;;;10.80;59.70;102021.84;7357269;19;20010;-56
2023/02/23 09:55:14;;;;;;;0.00;0.00;;;;;;;10.99;59.94;102020.91;7351122;19;20813;-56
2023/02/23 09:57:43;;;;;;;0.00;0.00;;;;;;;11.25;59.38;102025.16;7355076;19;20016;-55
2023/02/23 10:00:26;;;;;;;0.00;0.00;;;;;;;11.54;60.29;102031.13;7352484;19;21021;-56
2023/02/23 10:02:57;;;;;;;0.00;0.00;;;;;;;11.71;58.65;102033.66;7356791;19;20011;-56
2023/02/23 10:05:26;;;;;;;0.10;0.10;;;;;;;11.92;58.39;102030.06;7355046;19;20023;-56
2023/02/23 10:08:06;;;;;;;0.00;0.00;;;;;;;12.24;58.49;102031.56;7354483;19;20570;-56
2023/02/23 10:10:53;;;;;;;0.00;0.00;;;;;;;12.51;59.27;102033.94;7353925;19;20586;-56
2023/02/23 10:13:18;;;;;;;;;;;;;;;12.79;60.93;102021.44;7356189;19;20702;-56
2023/02/23 10:16:20;;;;;;;0.00;0.00;;;;;;;13.01;59.00;102022.03;7351651;19;19938;-56
2023/02/23 10:18:56;;;;;;;0.05;0.05;;;;;;;13.20;56.24;102023.56;7254360;19;2004199;-56
2023/02/23 10:21:42;;;;;;;0.00;0.00;;;;;;;13.44;56.85;102021.56;7353440;19;20014;-55
2023/02/23 10:24:10;;;;;;;0.00;0.00;;;;;;;13.65;55.52;102021.25;7355584;19;20471;-57
2023/02/23 10:26:53;;;;;;;0.00;0.00;;;;;;;13.92;56.82;102024.34;7354143;19;20014;-56
2023/02/23 10:29:26;;;;;;;0.00;0.00;;;;;;;14.09;54.74;102027.59;7351875;19;20515;-57
2023/02/23 10:31:56;;;;;;;0.00;0.00;;;;;;;14.30;54.12;102030.75;7354657;19;20014;-57
2023/02/23 10:34:25;;;;;;;0.10;0.10;;;;;;;14.45;53.10;102025.25;7353900;19;20010;-56
2023/02/23 10:36:59;;;;;;;0.00;0.00;;;;;;;14.68;52.17;102030.97;7351935;19;20363;-55
2023/02/23 10:39:25;;;;;;;0.10;0.10;;;;;;;14.75;51.78;102029.97;7355653;19;20738;-56
2023/02/23 10:41:51;;;;;;;0.10;0.10;;;;;;;14.94;51.39;102029.59;7353794;19;20022;-56
2023/02/23 10:44:20;;;;;;;0.10;0.10;;;;;;;15.18;50.94;102034.38;7354810;19;20281;-54
2023/02/23 10:46:54;;;;;;;0.00;0.00;;;;;;;15.39;51.63;102032.19;7351869;19;20018;-56
2023/02/23 10:49:23;;;;;;;0.10;0.10;;;;;;;15.55;51.03;102038.84;7355778;19;20011;-56
2023/02/23 10:51:51;;;;;;;0.10;0.10;;;;;;;15.63;50.00;102031.69;7351363;19;20373;-56
2023/02/23 10:54:43;;;;;;;0.00;0.00;;;;;;;15.97;53.98;102030.94;7352854;19;20019;-56
2023/02/23 10:57:15;;;;;;;0.10;0.10;;;;;;;16.12;50.19;102027.03;7252766;19;2004732;-57
2023/02/23 11:00:11;;;;;;;0.05;0.05;;;;;;;16.45;52.07;102033.25;7353942;19;20018;-56
2023/02/23 11:02:36;;;;;;;0.00;0.00;;;;;;;16.55;48.39;102029.44;7250694;19;2004547;-56
2023/02/23 11:05:03;;;;;;;0.03;0.03;;;;;;;16.66;46.79;102030.03;7353361;19;20010;-56
2023/02/23 11:07:31;;;;;;;0.10;0.10;;;;;;;16.70;47.49;102034.31;7354670;19;20101;-54
2023/02/23 11:09:57;;;;;;;;;;;;;;;16.80;53.57;102030.56;7353798;19;20021;-56
2023/02/23 11:12:36;;;;;;;0.00;0.00;;;;;;;16.63;48.23;102027.50;7352096;19;21311;-56
2023/02/23 11:15:21;;;;;;;0.00;0.00;;;;;;;16.56;50.53;102031.19;7353157;19;20562;-57
2023/02/23 11:17:58;;;;;;;0.10;0.10;;;;;;;16.40;48.41;102029.84;7352299;19;20361;-56
2023/02/23 11:20:38;;;;;;;0.10;0.10;;;;;;;16.26;48.94;102028.41;7353596;19;20007;-56
2023/02/23 11:23:11;;;;;;;0.10;0.10;;;;;;;16.14;47.89;102034.00;7353719;19;20013;-56
2023/02/23 11:25:40;;;;;;;0.10;0.10;;;;;;;16.00;46.40;102025.56;7351240;19;20018;-57
2023/02/23 11:28:19;;;;;;;0.10;0.10;;;;;;;16.12;49.53;102022.66;7353404;19;20770;-57
2023/02/23 11:30:46;;;;;;;0.10;0.10;;;;;;;16.15;48.32;102009.38;7354348;19;20018;-57
2023/02/23 11:33:16;;;;;;;0.10;0.10;;;;;;;16.51;48.32;102006.69;7361921;19;20740;-57
2023/02/23 11:35:41;;;;;;;0.10;0.10;;;;;;;16.76;48.17;102012.22;7359919;19;20113;-57
2023/02/23 11:38:24;;;;;;;0.00;0.00;;;;;;;17.24;50.76;102003.81;7359468;19;20530;-56
2023/02/23 11:41:06;;;;;;;0.00;0.00;;;;;;;17.66;49.66;102009.56;7359386;19;20357;-57
2023/02/23 11:43:31;;;;;;;0.00;0.00;;;;;;;17.93;46.40;102009.63;7358166;19;20705;-56
2023/02/23 11:46:00;;;;;;;0.10;0.10;;;;;;;18.22;45.98;101980.44;7359835;19;21229;-56
2023/02/23 11:48:36;;;;;;;0.10;0.10;;;;;;;18.73;47.22;101997.22;7357501;19;20018;-57
2023/02/23 11:51:02;;;;;;;0.00;0.00;;;;;;;18.95;45.02;101992.84;7358458;19;20007;-57
2023/02/23 11:53:30;;;;;;;0.10;0.10;;;;;;;19.32;44.14;101994.13;7357029;19;21403;-57
2023/02/23 11:56:01;;;;;;;0.00;0.00;;;;;;;19.71;43.69;101989.06;7356783;19;20014;-56
2023/02/23 11:58:38;;;;;;;0.05;0.05;;;;;;;20.02;42.66;101993.09;7359357;19;20357;-57
2023/02/23 12:01:11;;;;;;;0.00;0.00;;;;;;;20.31;42.34;101987.44;7358411;19;20006;-57
2023/02/23 12:03:48;;;;;;;0.03;0.03;;;;;;;20.50;40.60;101984.03;7358835;19;20006;-57
2023/02/23 12:06:28;;;;;;;;;;;;;;;20.89;48.12;101976.94;7359595;19;20006;-57
2023/02/23 12:09:01;;;;;;;0.00;0.00;;;;;;;20.99;39.98;101978.25;7361073;19;19950;-57
2023/02/23 12:11:31;;;;;;;0.00;0.00;;;;;;;21.09;39.03;101970.72;7358775;19;20014;-57
2023/02/23 12:14:07;;;;;;;0.15;0.15;;;;;;;21.37;40.31;101972.94;7356233;19;20078;-56
2023/02/23 12:16:39;;;;;;;0.03;0.03;;;;;;;21.50;39.65;101962.59;7357476;19;20017;-57
2023/02/23 12:19:22;;;;;;;0.10;0.10;;;;;;;21.73;42.93;101959.66;7351805;19;20024;-57
2023/02/23 12:21:57;;;;;;;0.10;0.10;;;;;;;21.89;40.78;101949.13;7352210;19;20031;-56
2023/02/23 12:24:30;;;;;;;0.10;0.10;;;;;;;21.99;40.65;101929.09;7336284;19;20003;-56
2023/02/23 12:27:12;;;;;;;0.10;0.10;;;;;;;22.23;38.81;101937.66;7348834;19;20075;-56
2023/02/23 12:29:47;;;;;;;0.10;0.10;;;;;;;22.40;37.97;101934.09;7355562;19;20380;-57
2023/02/23 12:32:20;;;;;;;0.10;0.10;;;;;;;22.57;37.65;101938.56;7354473;19;20006;-57
2023/02/23 12:34:56;;;;;;;0.10;0.10;;;;;;;22.80;38.61;101939.97;7357662;19;20456;-57
2023/02/23 12:37:23;;;;;;;0.03;0.03;;;;;;;22.83;35.81;101936.28;7354115;19;20505;-57
2023/02/23 12:39:57;;;;;;;0.10;0.10;;;;;;;23.05;38.45;101937.72;7347719;19;20033;-56
2023/02/23 12:42:38;;;;;;;0.00;0.00;;;;;;;23.13;39.51;101912.47;7345379;19;20819;-56
2023/02/23 12:45:12;;;;;;;0.10;0.10;;;;;;;23.30;34.35;101926.53;7348399;19;20787;-60
2023/02/23 12:47:47;;;;;;;0.03;0.03;;;;;;;23.38;34.55;101928.78;7355087;19;20355;-60
2023/02/23 12:50:30;;;;;;;0.10;0.10;;;;;;;23.65;38.00;101925.50;7358199;19;20585;-61
2023/02/23 12:53:07;;;;;;;0.10;0.10;;;;;;;23.76;36.74;101915.06;7359252;19;20017;-60
2023/02/23 12:55:40;;;;;;;0.10;0.10;;;;;;;23.85;36.75;101911.84;7355867;19;20463;-61
2023/02/23 12:58:12;;;;;;;0.10;0.10;;;;;;;24.03;36.42;101918.78;7354973;19;20097;-60
2023/02/23 13:01:10;;;;;;;0.10;0.10;;;;;;;24.17;38.23;101915.25;7355828;19;20513;-61
2023/02/23 13:04:06;;;;;;;0.10;0.10;;;;;;;24.18;37.18;101892.06;7254274;19;2004550;-61
2023/02/23 13:06:37;;;;;;;0.10;0.10;;;;;;;24.08;33.14;101894.47;7254178;19;2004570;-61